Time;durP1;ratioP1;P1;durP2;ratioP2;P2;SDS_P1;SDS_P2;PMS_P1;PMS_P2;Temp;Humidity;BMP_temperature;BMP_pressure;BME280_temperature;BME280_humidity;BME280_pressure;Samples;Min_cycle;Max_cycle;Signal;HPM_P1;HPM_P2
2022/10/06 00:01:05;;;;;;;7.22;0.80;;;13.70;88.20;;;;;;5028754;28;20354;-47
2022/10/06 00:03:32;;;;;;;6.80;0.90;;;13.70;88.20;;;;;;5019482;28;20037;-45
2022/10/06 00:06:06;;;;;;;3.33;1.23;;;13.70;88.20;;;;;;5030823;28;20586;-47
2022/10/06 00:08:44;;;;;;;4.10;1.05;;;13.70;88.30;;;;;;5005554;28;20112;-46
2022/10/06 00:11:16;;;;;;;2.72;0.60;;;13.70;88.20;;;;;;5024207;28;20036;-46
2022/10/06 00:13:43;;;;;;;4.53;1.10;;;13.70;88.10;;;;;;5032641;28;20034;-45
2022/10/06 00:16:16;;;;;;;6.90;1.52;;;13.70;88.00;;;;;;5019115;28;20029;-44
2022/10/06 00:18:43;;;;;;;6.72;1.10;;;13.70;87.90;;;;;;5030491;28;20380;-44
2022/10/06 00:21:11;;;;;;;6.50;1.50;;;13.60;87.70;;;;;;5032837;28;20389;-44
2022/10/06 00:23:38;;;;;;;4.18;1.00;;;13.60;87.70;;;;;;5035574;28;20300;-48
2022/10/06 00:26:08;;;;;;;3.33;0.90;;;13.60;87.70;;;;;;5015308;28;20324;-46
2022/10/06 00:28:35;;;;;;;3.13;1.05;;;13.60;87.60;;;;;;5017170;28;20175;-47
2022/10/06 00:31:02;;;;;;;5.07;0.98;;;13.60;87.60;;;;;;5033593;28;20025;-46
2022/10/06 00:33:31;;;;;;;4.28;1.30;;;13.50;87.50;;;;;;5032145;28;20033;-45
2022/10/06 00:35:59;;;;;;;3.58;1.05;;;13.50;87.30;;;;;;5023891;28;20113;-44
2022/10/06 00:38:28;;;;;;;5.18;1.30;;;13.50;87.40;;;;;;5031581;28;20037;-45
2022/10/06 00:40:56;;;;;;;5.80;0.75;;;13.50;87.30;;;;;;5030339;28;20229;-44
2022/10/06 00:43:56;;;;;;;5.88;1.88;;;13.40;87.30;;;;;;5026078;28;20045;-49
2022/10/06 00:46:47;;;;;;;9.15;1.50;;;13.40;87.30;;;;;;5023823;28;20029;-45
2022/10/06 00:49:16;;;;;;;3.88;0.90;;;13.40;87.20;;;;;;4991365;28;20026;-47
2022/10/06 00:51:51;;;;;;;7.97;1.48;;;13.40;87.10;;;;;;5027951;28;20014;-45
2022/10/06 00:54:18;;;;;;;7.50;2.00;;;13.40;87.30;;;;;;5023745;28;20017;-43
2022/10/06 00:56:44;;;;;;;4.68;0.90;;;13.40;87.50;;;;;;5024944;28;20022;-45
2022/10/06 00:59:19;;;;;;;5.07;1.33;;;13.40;87.50;;;;;;5031025;28;20071;-45
2022/10/06 01:02:34;;;;;;;4.78;1.25;;;13.40;87.70;;;;;;5022139;28;20044;-45
2022/10/06 01:05:04;;;;;;;4.38;1.17;;;13.40;87.70;;;;;;4999064;28;20061;-44
2022/10/06 01:07:31;;;;;;;6.50;1.85;;;13.40;87.70;;;;;;5025930;28;20607;-45
2022/10/06 01:09:58;;;;;;;8.45;1.58;;;13.40;87.50;;;;;;5012544;28;20040;-46
2022/10/06 01:12:28;;;;;;;5.80;1.20;;;13.40;87.60;;;;;;5032309;28;20013;-45
2022/10/06 01:14:56;;;;;;;5.30;1.17;;;13.40;87.60;;;;;;5012889;28;20447;-44
2022/10/06 01:17:50;;;;;;;5.18;1.35;;;13.40;87.40;;;;;;5013481;28;20044;-45
2022/10/06 01:20:37;;;;;;;8.30;1.60;;;13.40;87.20;;;;;;5029576;28;20091;-48
2022/10/06 01:23:08;;;;;;;6.22;1.10;;;13.40;87.10;;;;;;5020037;28;20454;-45
2022/10/06 01:25:41;;;;;;;6.35;1.90;;;13.40;86.90;;;;;;5003211;28;20343;-45
2022/10/06 01:28:12;;;;;;;7.68;1.50;;;13.30;86.80;;;;;;5017287;28;20443;-44
2022/10/06 01:30:53;;;;;;;7.13;1.58;;;13.30;86.70;;;;;;5023118;28;20048;-50
2022/10/06 01:33:21;;;;;;;9.52;1.67;;;13.20;86.70;;;;;;5018586;28;20026;-45
2022/10/06 01:35:50;;;;;;;6.85;1.50;;;13.20;86.60;;;;;;5026085;28;20065;-47
2022/10/06 01:38:16;;;;;;;8.97;1.70;;;13.20;86.60;;;;;;5012572;28;20452;-45
2022/10/06 01:40:44;;;;;;;4.70;1.40;;;13.20;86.60;;;;;;5030960;28;20022;-44
2022/10/06 01:43:14;;;;;;;15.68;2.10;;;13.20;86.50;;;;;;5006361;28;20083;-47
2022/10/06 01:45:41;;;;;;;12.25;2.67;;;13.20;86.40;;;;;;5031938;28;20044;-50
2022/10/06 01:48:08;;;;;;;13.70;3.00;;;13.10;86.30;;;;;;5027533;28;20026;-48
2022/10/06 01:50:35;;;;;;;15.10;2.65;;;13.10;86.30;;;;;;5033856;28;20447;-44
2022/10/06 01:53:02;;;;;;;8.27;1.60;;;13.10;86.10;;;;;;5034571;28;20450;-44
2022/10/06 01:55:32;;;;;;;11.60;2.65;;;13.10;85.90;;;;;;5021608;28;20474;-44
2022/10/06 01:58:00;;;;;;;8.57;1.50;;;13.10;85.90;;;;;;5014774;28;20048;-47
2022/10/06 02:00:29;;;;;;;7.60;1.42;;;13.00;85.70;;;;;;5035366;28;20040;-45
2022/10/06 02:02:56;;;;;;;6.90;1.50;;;13.00;85.70;;;;;;5011544;28;20029;-48
2022/10/06 02:05:23;;;;;;;7.75;2.38;;;13.00;85.80;;;;;;5027298;28;20108;-46
2022/10/06 02:07:52;;;;;;;9.25;2.97;;;12.90;85.60;;;;;;5035159;28;20022;-47
2022/10/06 02:10:20;;;;;;;10.05;2.10;;;12.90;85.80;;;;;;5035280;28;20445;-48
2022/10/06 02:12:52;;;;;;;11.35;2.67;;;12.90;85.70;;;;;;5010822;28;20049;-47
2022/10/06 02:15:19;;;;;;;8.80;2.00;;;12.90;85.60;;;;;;5031128;28;20026;-47
2022/10/06 02:17:47;;;;;;;10.15;2.17;;;12.90;85.50;;;;;;5000690;28;20033;-45
2022/10/06 02:20:14;;;;;;;11.18;1.52;;;12.80;85.30;;;;;;5027248;28;20030;-45
2022/10/06 02:22:42;;;;;;;9.63;1.73;;;12.80;85.20;;;;;;5035190;28;20470;-46
2022/10/06 02:25:13;;;;;;;14.48;4.50;;;12.80;85.10;;;;;;5030969;28;20539;-46
2022/10/06 02:27:39;;;;;;;9.02;1.75;;;12.80;84.90;;;;;;5011487;28;20115;-45
2022/10/06 02:30:07;;;;;;;12.88;2.33;;;12.70;84.60;;;;;;5022707;28;20742;-44
2022/10/06 02:32:36;;;;;;;10.77;2.58;;;12.70;84.30;;;;;;5020556;28;20450;-45
2022/10/06 02:35:05;;;;;;;14.57;2.40;;;12.70;84.00;;;;;;5042892;28;20128;-46
2022/10/06 02:37:32;;;;;;;7.30;2.13;;;12.70;83.90;;;;;;5054637;28;20025;-45
2022/10/06 02:40:01;;;;;;;13.85;2.25;;;12.70;83.70;;;;;;5053210;28;20044;-48
2022/10/06 02:42:30;;;;;;;7.90;1.80;;;12.70;83.80;;;;;;5054557;28;20029;-46
2022/10/06 02:44:57;;;;;;;13.20;3.33;;;12.60;83.70;;;;;;5054407;28;20033;-44
2022/10/06 02:47:30;;;;;;;11.68;3.03;;;12.60;83.80;;;;;;5033818;28;20068;-45
2022/10/06 02:50:04;;;;;;;9.40;2.50;;;12.60;83.80;;;;;;5049967;28;20443;-44
2022/10/06 02:52:33;;;;;;;10.15;2.88;;;12.50;83.90;;;;;;5053486;28;20103;-47
2022/10/06 02:55:03;;;;;;;15.52;2.25;;;12.60;84.00;;;;;;5052742;28;20076;-45
2022/10/06 02:57:34;;;;;;;10.05;2.10;;;12.50;84.10;;;;;;5042120;28;20065;-43
2022/10/06 03:00:06;;;;;;;13.27;2.33;;;12.60;84.10;;;;;;5052587;28;20033;-47
2022/10/06 03:02:35;;;;;;;13.38;2.17;;;12.50;83.90;;;;;;5049825;28;20032;-48
2022/10/06 03:05:02;;;;;;;10.88;1.90;;;12.50;83.60;;;;;;5048155;28;20053;-44
2022/10/06 03:07:35;;;;;;;9.23;1.73;;;12.50;83.50;;;;;;5034796;28;20029;-46
2022/10/06 03:10:01;;;;;;;8.90;1.85;;;12.50;83.60;;;;;;5037333;28;20070;-46
2022/10/06 03:12:28;;;;;;;14.30;2.63;;;12.50;83.60;;;;;;5045225;28;20034;-44
2022/10/06 03:14:55;;;;;;;7.95;2.60;;;12.50;83.50;;;;;;5030167;28;20028;-44
2022/10/06 03:17:25;;;;;;;15.15;2.15;;;12.50;83.60;;;;;;5051473;28;20036;-45
2022/10/06 03:19:51;;;;;;;13.90;2.78;;;12.40;83.60;;;;;;5032838;28;20029;-44
2022/10/06 03:22:17;;;;;;;13.55;2.97;;;12.40;83.70;;;;;;5053631;28;20025;-48
2022/10/06 03:24:47;;;;;;;10.77;2.50;;;12.40;83.70;;;;;;5050296;28;20451;-45
2022/10/06 03:27:17;;;;;;;10.77;2.40;;;12.40;83.90;;;;;;5045936;28;20037;-48
2022/10/06 03:29:44;;;;;;;10.65;3.55;;;12.40;83.90;;;;;;5054326;28;20020;-46
2022/10/06 03:32:10;;;;;;;12.30;2.00;;;12.40;83.80;;;;;;5044833;28;20338;-46
2022/10/06 03:34:37;;;;;;;9.82;1.90;;;12.40;83.60;;;;;;5043234;28;20041;-43
2022/10/06 03:37:03;;;;;;;9.90;2.30;;;12.40;83.60;;;;;;5048037;28;20029;-48
2022/10/06 03:39:33;;;;;;;16.42;2.40;;;12.40;83.50;;;;;;5055607;28;20357;-51
2022/10/06 03:42:00;;;;;;;11.88;2.85;;;12.40;83.70;;;;;;5054932;28;20032;-46
2022/10/06 03:44:26;;;;;;;10.52;2.22;;;12.30;83.70;;;;;;5038231;28;20038;-45
2022/10/06 03:46:56;;;;;;;8.95;2.33;;;12.30;83.80;;;;;;5046368;28;20133;-45
2022/10/06 03:49:25;;;;;;;12.57;2.50;;;12.30;83.70;;;;;;5045198;28;20036;-44
2022/10/06 03:51:53;;;;;;;12.52;2.10;;;12.20;83.90;;;;;;5043931;28;20033;-44
2022/10/06 03:54:19;;;;;;;10.40;2.75;;;12.20;83.70;;;;;;5045045;28;20053;-47
2022/10/06 03:56:45;;;;;;;13.45;2.72;;;12.20;83.70;;;;;;5052016;28;20045;-45
2022/10/06 03:59:15;;;;;;;13.20;2.30;;;12.10;83.80;;;;;;5048863;28;20047;-49
2022/10/06 04:01:44;;;;;;;12.15;3.63;;;12.10;83.80;;;;;;5047893;28;20021;-45
2022/10/06 04:04:14;;;;;;;9.17;2.67;;;12.10;83.80;;;;;;5045802;28;20037;-47
2022/10/06 04:06:43;;;;;;;18.95;3.70;;;12.10;84.00;;;;;;5035822;28;20035;-46
2022/10/06 04:09:12;;;;;;;11.93;3.47;;;12.10;83.90;;;;;;5025048;28;20502;-45
2022/10/06 04:11:39;;;;;;;11.32;2.92;;;12.10;84.10;;;;;;5049646;28;20098;-45
2022/10/06 04:14:12;;;;;;;16.08;2.40;;;12.00;84.20;;;;;;5040555;28;20041;-45
2022/10/06 04:16:50;;;;;;;8.35;2.38;;;12.00;84.20;;;;;;5028063;28;20361;-44
2022/10/06 04:19:17;;;;;;;14.18;2.58;;;12.00;84.40;;;;;;5034293;28;20033;-45
2022/10/06 04:21:45;;;;;;;16.92;2.67;;;11.90;84.60;;;;;;5046789;28;20036;-47
2022/10/06 04:24:13;;;;;;;12.35;2.28;;;11.90;84.50;;;;;;5051550;28;20115;-45
2022/10/06 04:26:45;;;;;;;11.60;2.15;;;11.90;84.60;;;;;;5034553;28;20029;-46
2022/10/06 04:29:12;;;;;;;10.38;2.20;;;11.90;84.70;;;;;;5048646;28;20412;-45
2022/10/06 04:31:45;;;;;;;15.75;2.42;;;11.90;84.60;;;;;;5052382;28;20021;-46
2022/10/06 04:34:12;;;;;;;10.10;1.73;;;11.90;84.60;;;;;;5052790;28;20041;-46
2022/10/06 04:36:40;;;;;;;12.20;2.38;;;11.90;84.40;;;;;;5047207;28;20029;-45
2022/10/06 04:39:11;;;;;;;13.30;2.22;;;11.90;84.70;;;;;;5036206;28;20033;-45
2022/10/06 04:41:45;;;;;;;15.90;3.17;;;11.90;84.40;;;;;;5051413;28;20606;-45
2022/10/06 04:44:12;;;;;;;14.02;3.47;;;11.90;84.50;;;;;;5035749;28;20040;-48
2022/10/06 04:46:51;;;;;;;11.90;2.13;;;11.90;84.50;;;;;;5046216;28;20382;-47
2022/10/06 04:49:18;;;;;;;11.65;2.08;;;11.90;84.50;;;;;;5022127;28;20743;-45
2022/10/06 04:51:49;;;;;;;10.45;3.30;;;11.90;84.30;;;;;;5047885;28;20020;-48
2022/10/06 04:54:18;;;;;;;11.52;2.20;;;11.80;84.50;;;;;;5015464;28;20167;-48
2022/10/06 04:56:44;;;;;;;12.02;3.05;;;11.80;84.40;;;;;;5052141;28;20067;-46
2022/10/06 04:59:13;;;;;;;13.05;3.47;;;11.80;84.40;;;;;;5049974;28;20060;-46
2022/10/06 05:01:43;;;;;;;10.57;1.92;;;11.80;84.40;;;;;;5050790;28;20064;-45
2022/10/06 05:04:10;;;;;;;;;;;11.80;84.30;;;;;;5050395;28;20050;-45
2022/10/06 05:06:39;;;;;;;11.15;1.95;;;11.80;84.10;;;;;;5051066;28;19912;-46
2022/10/06 05:09:14;;;;;;;9.55;2.05;;;11.70;84.10;;;;;;5010976;28;20034;-47
2022/10/06 05:11:42;;;;;;;9.38;1.73;;;11.70;84.10;;;;;;5053665;28;20028;-47
2022/10/06 05:14:09;;;;;;;11.55;2.25;;;11.70;84.20;;;;;;5032965;28;20032;-46
2022/10/06 05:16:36;;;;;;;11.27;1.77;;;11.70;84.10;;;;;;5051665;28;20466;-48
2022/10/06 05:19:02;;;;;;;9.85;2.88;;;11.60;84.20;;;;;;5050912;28;20033;-47
2022/10/06 05:21:31;;;;;;;15.50;2.33;;;11.60;84.20;;;;;;5051264;28;20078;-48
2022/10/06 05:23:59;;;;;;;12.60;2.50;;;11.60;84.40;;;;;;5033281;28;20033;-45
2022/10/06 05:26:31;;;;;;;8.98;2.47;;;11.50;84.30;;;;;;5055270;28;20044;-46
2022/10/06 05:28:57;;;;;;;11.13;3.00;;;11.50;84.40;;;;;;5037387;28;20370;-47
2022/10/06 05:31:42;;;;;;;9.88;2.22;;;11.50;84.40;;;;;;5045755;28;20047;-48
2022/10/06 05:34:13;;;;;;;10.52;2.05;;;11.50;84.50;;;;;;5033191;28;20369;-46
2022/10/06 05:36:39;;;;;;;10.27;3.33;;;11.50;84.50;;;;;;5047622;28;20032;-46
2022/10/06 05:39:09;;;;;;;10.48;2.35;;;11.50;84.60;;;;;;5054764;28;20047;-46
2022/10/06 05:41:36;;;;;;;;;;;11.40;84.80;;;;;;5055854;28;20040;-46
2022/10/06 05:44:04;;;;;;;12.57;2.72;;;11.50;84.80;;;;;;5055335;28;19912;-47
2022/10/06 05:46:32;;;;;;;9.15;3.40;;;11.50;84.70;;;;;;5053865;28;20067;-45
2022/10/06 05:49:03;;;;;;;16.45;2.63;;;11.40;84.70;;;;;;5035906;28;20519;-45
2022/10/06 05:51:31;;;;;;;12.85;3.22;;;11.40;84.70;;;;;;5047462;28;20060;-45
2022/10/06 05:54:01;;;;;;;9.98;2.60;;;11.40;84.60;;;;;;5054239;28;20028;-45
2022/10/06 05:56:34;;;;;;;;;;;11.40;84.60;;;;;;5042501;28;20033;-46
2022/10/06 05:59:02;;;;;;;12.25;2.97;;;11.40;84.40;;;;;;5048481;28;19931;-45
2022/10/06 06:01:40;;;;;;;9.45;2.60;;;11.40;84.50;;;;;;5027671;28;20033;-47
2022/10/06 06:04:13;;;;;;;9.68;2.33;;;11.50;84.60;;;;;;5054667;28;20373;-49
2022/10/06 06:07:00;;;;;;;14.73;3.88;;;11.40;84.50;;;;;;5035676;28;20103;-47
2022/10/06 06:09:27;;;;;;;9.48;3.22;;;11.40;84.40;;;;;;5052936;28;20127;-47
2022/10/06 06:11:58;;;;;;;9.23;2.28;;;11.40;84.60;;;;;;5052761;28;20025;-51
2022/10/06 06:17:10;;;;;;;13.43;2.72;;;11.40;84.60;;;;;;5052824;28;20091;-48
2022/10/06 06:19:37;;;;;;;12.40;2.42;;;11.50;84.70;;;;;;5053884;28;20339;-48
2022/10/06 06:22:05;;;;;;;9.85;2.17;;;11.50;84.80;;;;;;5051435;28;20036;-47
2022/10/06 06:24:32;;;;;;;7.03;2.05;;;11.50;84.90;;;;;;5049486;28;20401;-47
2022/10/06 06:27:02;;;;;;;12.88;2.10;;;11.50;85.00;;;;;;5052055;28;20025;-47
2022/10/06 06:29:33;;;;;;;;;;;11.50;85.00;;;;;;5048489;28;20471;-46
2022/10/06 06:32:02;;;;;;;8.27;2.85;;;11.50;85.20;;;;;;5052430;28;19913;-46
2022/10/06 06:34:31;;;;;;;6.18;1.85;;;11.50;85.30;;;;;;5051304;28;20063;-47
2022/10/06 06:36:58;;;;;;;14.70;3.67;;;11.50;85.40;;;;;;5054716;28;20110;-45
2022/10/06 06:39:31;;;;;;;10.02;2.88;;;11.50;85.60;;;;;;5052351;28;20029;-47
2022/10/06 06:42:00;;;;;;;14.43;2.42;;;11.60;85.70;;;;;;5052655;28;20033;-46
2022/10/06 06:44:28;;;;;;;10.07;2.42;;;11.60;85.70;;;;;;5055017;28;20032;-48
2022/10/06 06:46:55;;;;;;;10.10;2.47;;;11.60;85.70;;;;;;5044455;28;20112;-48
2022/10/06 06:49:27;;;;;;;9.02;2.90;;;11.70;85.80;;;;;;5053697;28;20025;-45
2022/10/06 06:51:54;;;;;;;14.10;2.70;;;11.80;86.20;;;;;;5051674;28;20018;-46
2022/10/06 06:54:23;;;;;;;10.57;2.42;;;11.80;85.70;;;;;;5044666;28;20461;-48
2022/10/06 06:56:51;;;;;;;15.55;3.33;;;11.80;85.60;;;;;;5052000;28;20033;-47
2022/10/06 06:59:19;;;;;;;15.73;2.55;;;11.80;85.60;;;;;;5045295;28;20466;-46
2022/10/06 07:01:47;;;;;;;9.52;2.40;;;11.80;85.70;;;;;;5048677;28;20029;-46
2022/10/06 07:04:18;;;;;;;18.58;3.20;;;11.90;85.70;;;;;;5052341;28;20569;-46
2022/10/06 07:07:06;;;;;;;12.30;3.78;;;11.90;85.70;;;;;;5030410;28;20029;-47
2022/10/06 07:09:32;;;;;;;9.57;2.42;;;11.90;85.60;;;;;;5051825;28;20037;-46
2022/10/06 07:12:00;;;;;;;10.80;2.78;;;11.90;85.70;;;;;;5049919;28;20084;-45
2022/10/06 07:14:27;;;;;;;6.07;1.80;;;11.90;85.50;;;;;;5035522;28;20040;-47
2022/10/06 07:25:11;;;;;;;11.88;2.42;;;12.10;85.10;;;;;;5051980;28;20063;-46
2022/10/06 07:27:43;;;;;;;19.35;3.10;;;12.20;84.80;;;;;;5050369;28;20171;-47
2022/10/06 07:30:18;;;;;;;11.25;2.53;;;12.30;84.70;;;;;;5050499;28;20032;-49
2022/10/06 07:32:49;;;;;;;13.68;2.47;;;12.40;84.60;;;;;;5052117;28;20017;-47
2022/10/06 07:35:19;;;;;;;10.68;2.35;;;12.50;84.00;;;;;;5048194;28;20056;-46
2022/10/06 07:37:46;;;;;;;9.75;2.45;;;12.80;83.40;;;;;;5033710;28;20038;-46
2022/10/06 07:40:17;;;;;;;15.43;3.95;;;13.10;82.60;;;;;;5045779;28;20034;-47
2022/10/06 07:42:47;;;;;;;18.65;2.25;;;13.30;81.80;;;;;;5014783;28;20044;-45
2022/10/06 07:45:43;;;;;;;13.13;2.65;;;13.60;81.40;;;;;;5022922;28;20029;-46
2022/10/06 07:48:18;;;;;;;12.70;2.20;;;13.80;80.00;;;;;;5028980;28;20037;-47
2022/10/06 07:50:49;;;;;;;16.38;2.35;;;13.90;79.80;;;;;;5025416;28;20478;-46
2022/10/06 07:53:17;;;;;;;16.73;2.42;;;14.20;78.70;;;;;;5029569;28;20037;-46
2022/10/06 07:55:46;;;;;;;9.10;2.00;;;14.30;78.50;;;;;;5033579;28;20051;-46
2022/10/06 07:58:22;;;;;;;17.90;3.13;;;14.50;78.50;;;;;;5032717;28;20120;-45
2022/10/06 08:00:51;;;;;;;12.80;2.35;;;14.50;77.20;;;;;;5030687;28;20021;-47
2022/10/06 08:03:21;;;;;;;11.43;2.50;;;14.60;77.30;;;;;;5032563;28;20446;-46
2022/10/06 08:05:56;;;;;;;10.45;2.45;;;14.70;77.20;;;;;;5032827;28;20026;-50
2022/10/06 08:08:23;;;;;;;9.00;2.00;;;14.70;76.50;;;;;;5033551;28;20021;-46
2022/10/06 08:10:56;;;;;;;12.52;2.38;;;14.90;76.40;;;;;;5032694;28;20040;-46
2022/10/06 08:13:23;;;;;;;10.20;2.20;;;14.80;76.30;;;;;;5031330;28;20026;-49
2022/10/06 08:15:50;;;;;;;12.95;2.72;;;15.00;76.00;;;;;;5032672;28;20025;-48
2022/10/06 08:18:18;;;;;;;17.08;2.97;;;15.00;75.40;;;;;;5031784;28;20033;-48
2022/10/06 08:20:45;;;;;;;16.90;2.85;;;15.20;75.30;;;;;;5032966;28;20041;-46
2022/10/06 08:23:15;;;;;;;10.20;3.25;;;15.30;75.20;;;;;;5031482;28;20114;-48
2022/10/06 08:25:49;;;;;;;10.38;2.78;;;15.40;74.40;;;;;;5024913;28;20022;-48
2022/10/06 08:28:15;;;;;;;10.35;2.42;;;15.40;74.00;;;;;;5027920;28;20044;-47
2022/10/06 08:30:43;;;;;;;9.95;2.58;;;15.50;74.70;;;;;;5030407;28;20439;-49
2022/10/06 08:33:15;;;;;;;11.38;2.67;;;15.40;74.30;;;;;;5025965;28;20419;-49
2022/10/06 08:35:42;;;;;;;9.07;2.30;;;15.50;74.30;;;;;;5022206;28;20048;-46
2022/10/06 08:38:09;;;;;;;9.98;2.47;;;15.60;74.10;;;;;;5005534;28;20114;-52
2022/10/06 08:40:36;;;;;;;13.30;3.00;;;15.70;74.50;;;;;;5024189;28;20068;-50
2022/10/06 08:43:15;;;;;;;12.75;2.53;;;15.80;74.10;;;;;;5031152;28;20096;-50
2022/10/06 08:45:45;;;;;;;11.23;2.65;;;15.70;73.40;;;;;;5010471;28;20168;-47
2022/10/06 08:48:37;;;;;;;8.90;2.25;;;15.80;73.70;;;;;;5032591;28;20049;-47
2022/10/06 08:51:11;;;;;;;15.95;2.88;;;15.80;73.30;;;;;;5013234;28;20026;-46
2022/10/06 08:54:02;;;;;;;9.90;2.72;;;15.90;73.60;;;;;;5025806;28;20191;-48
2022/10/06 08:56:47;;;;;;;9.95;2.33;;;15.80;73.30;;;;;;5032196;28;20096;-46
2022/10/06 08:59:15;;;;;;;12.80;3.50;;;16.00;71.70;;;;;;5031622;28;20091;-47
2022/10/06 09:01:59;;;;;;;10.75;2.72;;;15.90;72.10;;;;;;5032059;28;20029;-46
2022/10/06 09:04:44;;;;;;;14.82;2.75;;;15.90;71.90;;;;;;5031824;28;20128;-47
2022/10/06 09:07:21;;;;;;;9.93;1.95;;;16.00;73.10;;;;;;5029685;28;20033;-48
2022/10/06 09:10:03;;;;;;;10.55;2.83;;;16.10;73.00;;;;;;5024365;28;20466;-49
2022/10/06 09:12:44;;;;;;;9.20;2.65;;;16.10;71.00;;;;;;5029797;28;20028;-48
2022/10/06 09:15:43;;;;;;;14.52;2.83;;;16.40;71.70;;;;;;5031538;28;20049;-51
2022/10/06 09:18:27;;;;;;;12.00;3.03;;;16.50;72.20;;;;;;5031310;28;20105;-48
2022/10/06 09:21:01;;;;;;;9.50;2.30;;;16.60;70.20;;;;;;5028196;28;20326;-48
2022/10/06 09:23:47;;;;;;;15.05;3.35;;;16.60;69.80;;;;;;5031465;28;20091;-45
2022/10/06 09:26:27;;;;;;;11.98;3.15;;;16.50;70.40;;;;;;5032726;28;20056;-46
2022/10/06 09:28:54;;;;;;;21.92;3.08;;;16.70;70.10;;;;;;5014626;28;20017;-45
2022/10/06 09:31:30;;;;;;;8.57;2.30;;;16.50;69.70;;;;;;5032427;28;20049;-46
2022/10/06 09:34:14;;;;;;;15.38;2.92;;;16.60;69.30;;;;;;5030445;28;20042;-48
2022/10/06 09:37:06;;;;;;;15.65;3.03;;;16.50;69.30;;;;;;5039155;28;20034;-47
2022/10/06 09:39:36;;;;;;;8.52;2.10;;;16.80;70.30;;;;;;5030740;28;20847;-46
2022/10/06 09:42:11;;;;;;;8.57;2.60;;;16.60;68.50;;;;;;5046834;28;20029;-45
2022/10/06 09:44:59;;;;;;;11.95;1.85;;;16.50;69.00;;;;;;5051077;28;20490;-45
2022/10/06 09:47:44;;;;;;;8.00;2.53;;;16.60;70.00;;;;;;5051068;28;20053;-46
2022/10/06 09:50:28;;;;;;;14.50;3.17;;;16.60;68.20;;;;;;5049263;28;20434;-47
2022/10/06 09:53:15;;;;;;;14.32;3.13;;;16.40;67.90;;;;;;5052096;28;20312;-47
2022/10/06 09:56:01;;;;;;;12.98;3.00;;;16.40;68.30;;;;;;5051813;28;20017;-46
2022/10/06 09:58:56;;;;;;;12.02;2.95;;;16.40;68.40;;;;;;5049926;28;20167;-45
2022/10/06 10:01:28;;;;;;;10.68;2.25;;;16.40;67.80;;;;;;5047457;28;20033;-47
2022/10/06 10:03:59;;;;;;;12.68;3.05;;;16.00;68.50;;;;;;5042913;28;20334;-46
2022/10/06 10:06:34;;;;;;;11.32;2.33;;;16.00;69.70;;;;;;5049970;28;20086;-46
2022/10/06 10:09:20;;;;;;;11.00;2.70;;;16.10;68.70;;;;;;5051900;28;20040;-45
2022/10/06 10:12:30;;;;;;;12.30;3.38;;;16.00;69.90;;;;;;5052099;28;20044;-45
2022/10/06 10:15:03;;;;;;;15.90;4.00;;;16.30;69.70;;;;;;5051885;28;20044;-48
2022/10/06 10:17:49;;;;;;;8.15;2.95;;;16.70;70.70;;;;;;5055202;28;20047;-46
2022/10/06 10:20:35;;;;;;;14.00;3.17;;;16.60;69.00;;;;;;5054112;28;20029;-46
2022/10/06 10:23:19;;;;;;;7.95;2.65;;;16.70;68.30;;;;;;5055192;28;20033;-46
2022/10/06 10:26:00;;;;;;;11.80;2.38;;;16.90;66.70;;;;;;5037373;28;20114;-46
2022/10/06 10:28:50;;;;;;;16.05;3.10;;;16.60;66.80;;;;;;5053892;28;20108;-47
2022/10/06 10:31:47;;;;;;;10.95;2.53;;;16.30;68.00;;;;;;5054483;28;20036;-48
2022/10/06 10:34:42;;;;;;;16.23;2.75;;;16.40;67.90;;;;;;5048643;28;20045;-45
2022/10/06 10:37:29;;;;;;;11.32;2.60;;;16.60;67.50;;;;;;5035692;28;20103;-45
2022/10/06 10:40:16;;;;;;;11.93;2.65;;;16.40;67.50;;;;;;5013729;28;20496;-46
2022/10/06 10:43:04;;;;;;;11.05;2.40;;;16.40;68.20;;;;;;5015558;28;20022;-47
2022/10/06 10:45:34;;;;;;;9.93;2.22;;;16.20;68.10;;;;;;5029205;28;20029;-47
2022/10/06 10:48:24;;;;;;;11.60;2.72;;;16.40;67.80;;;;;;5034681;28;20061;-46
2022/10/06 10:51:15;;;;;;;11.85;2.47;;;16.50;68.80;;;;;;5033765;28;20131;-49
2022/10/06 10:53:54;;;;;;;14.88;2.53;;;16.70;68.20;;;;;;5035317;28;20087;-46
2022/10/06 10:56:25;;;;;;;12.18;2.47;;;16.90;66.60;;;;;;5035372;28;20103;-45
2022/10/06 10:59:00;;;;;;;15.05;2.85;;;16.90;66.10;;;;;;5033964;28;20030;-48
2022/10/06 11:01:49;;;;;;;11.05;2.30;;;16.90;66.70;;;;;;5034230;28;20040;-46
2022/10/06 11:04:16;;;;;;;10.75;3.60;;;17.10;65.80;;;;;;5035140;28;20154;-46
2022/10/06 11:06:47;;;;;;;12.05;3.00;;;16.90;66.00;;;;;;5017118;28;20443;-46
2022/10/06 11:09:17;;;;;;;11.38;2.53;;;17.00;65.30;;;;;;5034873;28;20038;-46
2022/10/06 11:12:04;;;;;;;9.80;2.53;;;17.10;64.30;;;;;;5033633;28;20083;-45
2022/10/06 11:15:02;;;;;;;10.48;2.50;;;17.00;65.50;;;;;;5034225;28;20025;-47
2022/10/06 11:17:50;;;;;;;11.95;2.22;;;17.00;63.40;;;;;;5032797;28;20048;-46
2022/10/06 11:20:31;;;;;;;12.57;2.70;;;16.90;64.00;;;;;;5034660;28;20033;-47
2022/10/06 11:23:35;;;;;;;9.35;2.50;;;16.60;64.80;;;;;;5033875;28;20087;-45
2022/10/06 11:26:25;;;;;;;9.73;1.83;;;16.60;66.00;;;;;;5033474;28;20120;-46
2022/10/06 11:29:09;;;;;;;8.85;1.70;;;16.60;65.10;;;;;;5033585;28;20465;-46
2022/10/06 11:31:53;;;;;;;8.98;2.50;;;16.60;64.00;;;;;;5033353;28;20514;-46
2022/10/06 11:34:19;;;;;;;10.85;1.83;;;16.50;64.50;;;;;;5031126;28;20069;-46
2022/10/06 11:36:47;;;;;;;8.57;2.00;;;16.50;64.30;;;;;;5015850;28;20064;-45
2022/10/06 11:39:56;;;;;;;8.18;1.73;;;16.50;64.10;;;;;;5034270;28;20033;-46
2022/10/06 11:42:42;;;;;;;12.35;2.78;;;16.60;64.90;;;;;;5031916;28;20108;-49
2022/10/06 11:45:39;;;;;;;6.90;1.73;;;16.80;64.30;;;;;;5032320;28;20037;-48
2022/10/06 11:48:24;;;;;;;6.70;1.67;;;16.70;64.30;;;;;;5023893;28;20060;-47
2022/10/06 11:50:54;;;;;;;11.48;2.50;;;16.80;65.20;;;;;;5012030;28;20037;-49
2022/10/06 11:53:36;;;;;;;;;;;16.90;64.60;;;;;;5033803;28;20030;-47
2022/10/06 11:56:20;;;;;;;7.95;1.40;;;16.90;61.20;;;;;;5033259;28;19971;-49
2022/10/06 11:58:54;;;;;;;7.60;1.90;;;16.80;62.00;;;;;;5014160;28;20045;-46
2022/10/06 12:01:37;;;;;;;7.63;1.95;;;16.70;62.40;;;;;;5033158;28;20033;-47
2022/10/06 12:04:09;;;;;;;12.63;2.28;;;16.60;62.70;;;;;;5028702;28;20095;-45
2022/10/06 12:06:44;;;;;;;10.75;2.38;;;16.70;62.30;;;;;;5027048;28;20104;-46
2022/10/06 12:09:44;;;;;;;5.88;1.70;;;16.70;62.70;;;;;;5012844;28;20037;-45
2022/10/06 12:12:32;;;;;;;7.47;1.90;;;16.70;62.70;;;;;;5033093;28;20029;-45
2022/10/06 12:15:20;;;;;;;8.82;1.55;;;16.70;63.80;;;;;;5017293;28;20539;-45
2022/10/06 12:18:14;;;;;;;7.55;1.30;;;16.70;61.90;;;;;;5012570;28;20401;-46
2022/10/06 12:20:58;;;;;;;8.98;1.98;;;16.60;61.90;;;;;;5031531;28;20112;-45
2022/10/06 12:24:03;;;;;;;9.57;2.58;;;16.60;61.60;;;;;;5030791;28;20033;-48
2022/10/06 12:26:56;;;;;;;6.43;2.42;;;16.50;64.30;;;;;;5025636;28;20086;-45
2022/10/06 12:29:49;;;;;;;8.23;1.38;;;16.70;64.80;;;;;;5032218;28;20035;-49
2022/10/06 12:32:38;;;;;;;6.10;1.88;;;16.60;63.10;;;;;;5014532;28;20034;-47
2022/10/06 12:35:28;;;;;;;7.82;1.88;;;16.60;61.90;;;;;;5043310;28;20034;-48
2022/10/06 12:38:03;;;;;;;;;;;16.50;61.70;;;;;;5051199;28;20575;-49
2022/10/06 12:41:17;;;;;;;7.95;2.03;;;16.50;61.90;;;;;;5051018;28;20357;-47
2022/10/06 12:43:55;;;;;;;11.82;2.78;;;16.60;62.70;;;;;;5023847;28;20025;-47
2022/10/06 12:46:42;;;;;;;8.52;1.88;;;16.60;62.60;;;;;;5003100;28;20103;-47
2022/10/06 12:49:44;;;;;;;7.82;1.75;;;16.50;62.70;;;;;;5020881;28;20078;-47
2022/10/06 12:52:33;;;;;;;8.30;1.73;;;16.50;61.30;;;;;;5030272;28;20044;-46
2022/10/06 12:55:41;;;;;;;7.45;1.63;;;16.50;61.00;;;;;;5050614;28;20074;-48
2022/10/06 12:58:19;;;;;;;5.65;1.30;;;16.50;61.10;;;;;;5042628;28;20139;-47
2022/10/06 13:00:46;;;;;;;6.95;1.90;;;16.50;61.60;;;;;;5041144;28;20025;-48
2022/10/06 13:03:23;;;;;;;9.80;1.63;;;16.60;61.70;;;;;;5050991;28;20024;-47
2022/10/06 13:05:54;;;;;;;7.40;1.65;;;16.50;61.20;;;;;;5042412;28;20047;-46
2022/10/06 13:08:27;;;;;;;11.32;2.38;;;16.50;62.10;;;;;;5032676;28;20021;-48
2022/10/06 13:11:21;;;;;;;6.88;1.42;;;16.50;60.80;;;;;;5046926;28;20025;-47
2022/10/06 13:13:53;;;;;;;5.75;1.38;;;16.50;62.20;;;;;;5034149;28;20022;-46
2022/10/06 13:16:23;;;;;;;7.47;1.80;;;16.50;62.60;;;;;;5027727;28;20365;-50
2022/10/06 13:18:55;;;;;;;8.10;2.20;;;16.60;63.10;;;;;;5045815;28;20033;-46
2022/10/06 13:21:22;;;;;;;8.55;2.40;;;16.60;64.60;;;;;;5032327;28;20026;-47
2022/10/06 13:23:50;;;;;;;12.32;2.03;;;16.70;64.40;;;;;;5014079;28;20037;-46
2022/10/06 13:26:33;;;;;;;13.50;2.83;;;16.70;61.90;;;;;;5031320;28;20495;-46
2022/10/06 13:28:59;;;;;;;6.57;1.77;;;16.70;61.90;;;;;;5047793;28;20152;-46
2022/10/06 13:31:33;;;;;;;5.43;1.15;;;16.70;61.00;;;;;;5052339;28;20036;-46